createdAt,value
2019-05-29T00:02:10.051Z,2.10
2019-05-29T00:04:36.461Z,2.30
2019-05-29T00:07:02.538Z,2.23
2019-05-29T00:09:28.824Z,2.23
2019-05-29T00:11:54.979Z,2.43
2019-05-29T00:14:27.252Z,2.60
2019-05-29T00:16:49.073Z,2.33
2019-05-29T00:19:15.268Z,2.33
2019-05-29T00:21:41.354Z,2.30
2019-05-29T00:24:08.311Z,2.30
2019-05-29T00:26:34.741Z,2.40
2019-05-29T00:29:00.906Z,2.47
2019-05-29T00:31:27.114Z,2.30
2019-05-29T00:33:53.183Z,2.37
2019-05-29T00:36:19.352Z,2.30
2019-05-29T00:38:45.427Z,2.33
2019-05-29T00:41:13.031Z,2.40
2019-05-29T00:43:39.184Z,2.50
2019-05-29T00:46:07.300Z,2.30
2019-05-29T00:48:33.545Z,2.73
2019-05-29T00:50:59.638Z,2.27
2019-05-29T00:53:25.924Z,2.73
2019-05-29T00:55:52.021Z,2.43
2019-05-29T00:58:19.768Z,2.63
2019-05-29T01:00:45.971Z,2.30
2019-05-29T01:03:12.064Z,2.60
2019-05-29T01:05:38.154Z,2.70
2019-05-29T01:08:04.355Z,2.83
2019-05-29T01:10:30.552Z,2.80
2019-05-29T01:12:56.650Z,2.60
2019-05-29T01:15:22.941Z,3.00
2019-05-29T01:17:49.048Z,3.23
2019-05-29T01:20:16.025Z,2.87
2019-05-29T01:22:42.165Z,2.70
2019-05-29T01:25:08.665Z,3.50
2019-05-29T01:27:34.830Z,3.60
2019-05-29T01:30:01.133Z,3.70
2019-05-29T01:32:27.300Z,3.60
2019-05-29T01:34:53.368Z,3.93
2019-05-29T01:37:20.318Z,2.90
2019-05-29T01:39:46.456Z,3.40
2019-05-29T01:42:12.535Z,3.20
2019-05-29T01:44:38.697Z,3.63
2019-05-29T01:47:04.802Z,3.27
2019-05-29T01:49:30.866Z,4.17
2019-05-29T01:51:56.961Z,4.33
2019-05-29T01:54:23.787Z,3.70
2019-05-29T01:56:50.069Z,4.23
2019-05-29T01:59:16.162Z,3.77
2019-05-29T02:01:42.248Z,4.20
2019-05-29T02:04:08.305Z,4.43
2019-05-29T02:06:34.413Z,5.20
2019-05-29T02:09:00.540Z,4.60
2019-05-29T02:11:27.539Z,4.93
2019-05-29T02:13:53.798Z,4.40
2019-05-29T02:16:20.665Z,4.10
2019-05-29T02:18:46.983Z,4.30
2019-05-29T02:21:13.100Z,4.17
2019-05-29T02:23:39.189Z,4.10
2019-05-29T02:26:05.307Z,4.70
2019-05-29T02:28:31.490Z,5.03
2019-05-29T02:30:57.565Z,4.73
2019-05-29T02:33:24.272Z,4.43
2019-05-29T02:35:51.834Z,5.20
2019-05-29T02:38:18.451Z,4.57
2019-05-29T02:40:44.674Z,5.30
2019-05-29T02:43:10.767Z,4.53
2019-05-29T02:45:53.521Z,4.67
2019-05-29T02:48:06.102Z,5.00
2019-05-29T02:50:32.176Z,4.90
2019-05-29T02:52:59.410Z,5.47
2019-05-29T02:55:26.936Z,5.70
2019-05-29T02:57:53.547Z,6.03
2019-05-29T03:00:38.759Z,4.93
2019-05-29T03:03:04.826Z,5.57
2019-05-29T03:05:32.024Z,5.40
2019-05-29T03:07:58.435Z,5.53
2019-05-29T03:10:24.909Z,5.50
2019-05-29T03:12:51.617Z,4.60
2019-05-29T03:15:17.790Z,4.83
2019-05-29T03:17:43.866Z,5.10
2019-05-29T03:20:10.244Z,5.60
2019-05-29T03:22:36.425Z,5.90
2019-05-29T03:25:04.996Z,6.07
2019-05-29T03:27:31.996Z,6.27
2019-05-29T03:29:59.233Z,5.77
2019-05-29T03:32:28.006Z,6.60
2019-05-29T03:34:53.371Z,6.30
2019-05-29T03:37:19.443Z,6.17
2019-05-29T03:39:45.558Z,6.17
2019-05-29T03:42:11.625Z,5.37
2019-05-29T03:44:38.665Z,5.63
2019-05-29T03:47:04.958Z,5.93
2019-05-29T03:49:33.054Z,6.17
2019-05-29T03:51:59.335Z,5.50
2019-05-29T03:54:26.688Z,6.13
2019-05-29T03:56:53.569Z,5.60
2019-05-29T03:59:19.660Z,6.17
2019-05-29T04:01:45.839Z,7.40
2019-05-29T04:04:12.035Z,5.97
2019-05-29T04:06:38.121Z,6.77
2019-05-29T04:09:04.996Z,5.90
2019-05-29T04:11:31.515Z,7.53
2019-05-29T04:13:57.775Z,8.37
2019-05-29T04:16:24.853Z,6.93
2019-05-29T04:18:52.230Z,8.50
2019-05-29T04:21:18.827Z,8.23
2019-05-29T04:23:47.916Z,7.33
2019-05-29T04:26:15.200Z,6.63
2019-05-29T04:28:41.384Z,7.93
2019-05-29T04:31:07.531Z,6.83
2019-05-29T04:33:34.938Z,7.73
2019-05-29T04:36:01.582Z,7.63
2019-05-29T04:38:28.658Z,7.73
2019-05-29T04:40:55.269Z,8.57
2019-05-29T04:43:21.370Z,7.97
2019-05-29T04:45:47.442Z,7.07
2019-05-29T04:48:13.549Z,8.10
2019-05-29T04:50:40.685Z,7.53
2019-05-29T04:53:07.023Z,7.57
2019-05-29T04:55:33.451Z,7.67
2019-05-29T04:58:01.502Z,9.03
2019-05-29T05:00:28.911Z,8.50
2019-05-29T05:02:55.140Z,8.30
2019-05-29T05:05:21.457Z,8.30
2019-05-29T05:07:47.524Z,8.13
2019-05-29T05:10:33.382Z,7.73
2019-05-29T05:12:59.990Z,7.63
2019-05-29T05:15:26.337Z,8.17
2019-05-29T05:17:52.507Z,8.13
2019-05-29T05:20:18.616Z,7.80
2019-05-29T05:22:44.735Z,7.57
2019-05-29T05:25:10.894Z,7.43
2019-05-29T05:27:36.989Z,8.10
2019-05-29T05:30:08.854Z,7.23
2019-05-29T05:32:34.830Z,7.93
2019-05-29T05:35:00.965Z,7.37
2019-05-29T05:37:27.170Z,6.50
2019-05-29T05:39:53.355Z,7.10
2019-05-29T05:42:19.515Z,6.93
2019-05-29T05:44:45.615Z,6.87
2019-05-29T05:47:11.731Z,6.10
2019-05-29T05:49:37.811Z,6.13
2019-05-29T05:52:04.013Z,5.57
2019-05-29T05:54:31.265Z,6.20
2019-05-29T05:56:57.492Z,6.07
2019-05-29T05:59:23.569Z,5.77
2019-05-29T06:01:49.655Z,6.40
2019-05-29T06:04:15.742Z,5.00
2019-05-29T06:06:42.396Z,4.90
2019-05-29T06:09:08.917Z,6.13
2019-05-29T06:11:36.154Z,5.70
2019-05-29T06:14:02.657Z,4.80
2019-05-29T06:16:28.843Z,6.10
2019-05-29T06:18:54.914Z,7.03
2019-05-29T06:21:21.010Z,7.10
2019-05-29T06:23:47.253Z,6.27
2019-05-29T06:26:13.521Z,6.57
2019-05-29T06:28:41.175Z,8.27
2019-05-29T06:31:07.360Z,9.27
2019-05-29T06:33:35.282Z,10.80
2019-05-29T06:36:01.473Z,13.87
2019-05-29T06:38:27.687Z,12.37
2019-05-29T06:40:54.018Z,13.80
2019-05-29T06:43:22.269Z,11.23
2019-05-29T06:45:48.560Z,8.67
2019-05-29T06:48:40.736Z,9.00
2019-05-29T06:50:57.296Z,4.00
2019-05-29T06:53:22.197Z,3.87
2019-05-29T06:55:53.636Z,4.90
2019-05-29T06:58:16.435Z,6.63
2019-05-29T07:00:42.940Z,12.20
2019-05-29T07:03:09.117Z,15.67
2019-05-29T07:05:35.597Z,8.23
2019-05-29T07:08:16.848Z,6.43
2019-05-29T07:10:30.159Z,5.93
2019-05-29T07:12:56.374Z,5.73
2019-05-29T07:15:22.488Z,6.33
2019-05-29T07:17:48.792Z,4.67
2019-05-29T07:20:15.339Z,4.23
2019-05-29T07:22:42.747Z,4.03
2019-05-29T07:25:09.401Z,4.10
2019-05-29T07:27:36.708Z,3.80
2019-05-29T07:30:04.700Z,4.10
2019-05-29T07:32:30.976Z,3.50
2019-05-29T07:35:03.491Z,4.30
2019-05-29T07:37:26.138Z,4.53
2019-05-29T07:39:52.247Z,3.93
2019-05-29T07:42:18.338Z,3.37
2019-05-29T07:44:44.565Z,3.27
2019-05-29T07:47:11.029Z,3.30
2019-05-29T07:49:39.826Z,3.43
2019-05-29T07:52:05.366Z,3.70
2019-05-29T07:54:32.553Z,4.10
2019-05-29T07:56:58.761Z,3.50
2019-05-29T07:59:24.979Z,3.73
2019-05-29T08:01:51.091Z,3.20
2019-05-29T08:04:17.471Z,2.70
2019-05-29T08:06:49.760Z,3.23
2019-05-29T08:09:11.597Z,3.23
2019-05-29T08:11:37.850Z,3.13
2019-05-29T08:14:04.049Z,2.60
2019-05-29T08:16:30.305Z,2.60
2019-05-29T08:18:56.529Z,2.67
2019-05-29T08:21:22.601Z,2.97
2019-05-29T08:23:48.827Z,2.60
2019-05-29T08:26:14.937Z,2.80
2019-05-29T08:28:41.543Z,2.90
2019-05-29T08:31:08.916Z,2.70
2019-05-29T08:33:35.083Z,2.60
2019-05-29T08:36:01.278Z,2.70
2019-05-29T08:38:27.396Z,2.47
2019-05-29T08:40:53.502Z,2.80
2019-05-29T08:43:19.687Z,2.07
2019-05-29T08:45:45.925Z,2.90
2019-05-29T08:48:12.142Z,2.10
2019-05-29T08:50:38.830Z,1.80
2019-05-29T08:53:05.251Z,2.10
2019-05-29T08:55:31.351Z,2.00
2019-05-29T08:57:57.462Z,2.00
2019-05-29T09:00:24.603Z,1.83
2019-05-29T09:02:51.155Z,1.77
2019-05-29T09:05:17.750Z,1.70
2019-05-29T09:07:45.897Z,1.80
2019-05-29T09:10:12.490Z,1.70
2019-05-29T09:12:38.666Z,1.90
2019-05-29T09:15:06.143Z,1.90
2019-05-29T09:17:34.595Z,1.70
2019-05-29T09:20:00.661Z,1.37
2019-05-29T09:22:27.185Z,1.35
2019-05-29T09:24:54.362Z,1.70
2019-05-29T09:27:21.226Z,1.60
2019-05-29T09:29:47.380Z,1.70
2019-05-29T09:32:14.880Z,2.05
2019-05-29T09:34:41.761Z,1.83
2019-05-29T09:37:07.886Z,1.50
2019-05-29T09:39:33.984Z,1.60
2019-05-29T09:42:00.059Z,1.73
2019-05-29T09:44:38.064Z,1.70
2019-05-29T09:46:54.457Z,1.60
2019-05-29T09:49:21.811Z,1.50
2019-05-29T09:51:48.168Z,1.80
2019-05-29T09:54:14.403Z,1.80
2019-05-29T09:56:40.547Z,1.70
2019-05-29T09:59:06.631Z,1.80
2019-05-29T10:01:32.742Z,1.70
2019-05-29T10:04:00.057Z,1.73
2019-05-29T10:06:27.909Z,1.70
2019-05-29T10:08:55.787Z,1.80
2019-05-29T10:11:22.205Z,1.90
2019-05-29T10:13:48.397Z,1.80
2019-05-29T10:16:14.481Z,1.60
2019-05-29T10:18:40.573Z,1.70
2019-05-29T10:21:06.914Z,1.47
2019-05-29T10:23:33.246Z,1.60
2019-05-29T10:26:02.765Z,1.67
2019-05-29T10:28:48.378Z,1.73
2019-05-29T10:30:56.810Z,1.40
2019-05-29T10:33:22.949Z,1.40
2019-05-29T10:35:53.012Z,1.50
2019-05-29T10:38:17.579Z,1.50
2019-05-29T10:40:47.359Z,1.50
2019-05-29T10:43:12.215Z,1.60
2019-05-29T10:45:38.409Z,1.50
2019-05-29T10:48:04.702Z,1.60
2019-05-29T10:50:31.040Z,1.52
2019-05-29T10:52:57.120Z,1.30
2019-05-29T10:55:23.295Z,1.45
2019-05-29T10:57:50.792Z,1.75
2019-05-29T11:00:18.100Z,1.70
2019-05-29T11:02:45.951Z,1.70
2019-05-29T11:05:12.750Z,1.80
2019-05-29T11:07:38.906Z,1.67
2019-05-29T11:10:08.038Z,1.57
2019-05-29T11:12:34.355Z,1.60
2019-05-29T11:15:00.651Z,1.37
2019-05-29T11:17:26.757Z,1.60
2019-05-29T11:19:55.559Z,1.70
2019-05-29T11:22:26.321Z,3.90
2019-05-29T11:24:50.090Z,2.43
2019-05-29T11:27:16.341Z,1.70
2019-05-29T11:29:42.508Z,2.00
2019-05-29T11:32:08.612Z,1.83
2019-05-29T11:34:34.774Z,1.80
2019-05-29T11:37:01.078Z,1.53
2019-05-29T11:39:27.256Z,1.50
2019-05-29T11:41:53.334Z,1.93
2019-05-29T11:44:19.457Z,1.67
2019-05-29T11:46:45.556Z,1.63
2019-05-29T11:49:11.770Z,1.47
2019-05-29T11:51:37.856Z,1.40
2019-05-29T11:54:04.173Z,1.53
2019-05-29T11:56:30.381Z,1.40
2019-05-29T11:58:56.913Z,1.67
2019-05-29T12:01:23.262Z,1.40
2019-05-29T12:04:13.691Z,2.00
2019-05-29T12:06:17.522Z,2.30
2019-05-29T12:08:43.685Z,1.80
2019-05-29T12:11:09.905Z,2.03
2019-05-29T12:13:36.185Z,2.07
2019-05-29T12:16:02.786Z,2.10
2019-05-29T12:18:28.861Z,2.07
2019-05-29T12:20:56.174Z,1.80
2019-05-29T12:23:26.267Z,2.60
2019-05-29T12:26:10.398Z,2.03
2019-05-29T12:28:18.751Z,2.23
2019-05-29T12:30:44.885Z,2.30
2019-05-29T12:33:10.988Z,2.00
2019-05-29T12:35:37.185Z,2.00
2019-05-29T12:38:03.605Z,2.30
2019-05-29T12:40:29.707Z,2.40
2019-05-29T12:42:57.488Z,2.30
2019-05-29T12:45:23.894Z,2.30
2019-05-29T12:47:50.106Z,2.30
2019-05-29T12:50:16.872Z,2.53
2019-05-29T12:52:43.077Z,2.50
2019-05-29T12:55:09.974Z,2.80
2019-05-29T12:57:36.395Z,2.70
2019-05-29T13:00:10.318Z,2.60
2019-05-29T13:02:36.394Z,3.00
2019-05-29T13:05:12.832Z,2.60
2019-05-29T13:07:33.275Z,2.80
2019-05-29T13:10:00.502Z,2.57
2019-05-29T13:12:26.678Z,2.47
2019-05-29T13:14:52.894Z,2.40
2019-05-29T13:17:19.090Z,2.50
2019-05-29T13:19:45.228Z,2.40
2019-05-29T13:22:11.428Z,2.60
2019-05-29T13:24:37.735Z,2.72
2019-05-29T13:27:04.055Z,2.43
2019-05-29T13:29:30.147Z,2.60
2019-05-29T13:31:58.016Z,2.97
2019-05-29T13:34:24.437Z,2.63
2019-05-29T13:36:50.557Z,3.00
2019-05-29T13:39:16.711Z,3.02
2019-05-29T13:41:42.863Z,2.37
2019-05-29T13:44:08.965Z,2.08
2019-05-29T13:46:35.051Z,2.35
2019-05-29T13:49:01.341Z,2.60
2019-05-29T13:51:27.419Z,2.70
2019-05-29T13:54:03.581Z,2.60
2019-05-29T13:56:24.190Z,2.20
2019-05-29T13:58:49.601Z,2.90
2019-05-29T14:01:15.820Z,2.55
2019-05-29T14:03:42.127Z,2.33
2019-05-29T14:06:09.599Z,2.70
2019-05-29T14:08:36.030Z,3.80
2019-05-29T14:11:03.431Z,2.67
2019-05-29T14:13:29.862Z,2.63
2019-05-29T14:15:55.966Z,2.70
2019-05-29T14:18:22.275Z,2.60
2019-05-29T14:20:48.458Z,2.23
2019-05-29T14:23:14.664Z,2.70
2019-05-29T14:25:40.778Z,3.00
2019-05-29T14:28:06.978Z,2.70
2019-05-29T14:30:33.361Z,2.80
2019-05-29T14:32:59.481Z,2.80
2019-05-29T14:35:25.680Z,2.53
2019-05-29T14:37:51.884Z,2.30
2019-05-29T14:40:18.876Z,2.10
2019-05-29T14:42:44.947Z,3.60
2019-05-29T14:45:12.454Z,2.30
2019-05-29T14:47:38.841Z,2.20
2019-05-29T14:50:06.749Z,2.03
2019-05-29T14:52:33.970Z,2.30
2019-05-29T14:55:00.272Z,2.30
2019-05-29T14:57:26.546Z,2.20
2019-05-29T14:59:52.661Z,1.90
2019-05-29T15:02:23.766Z,1.60
2019-05-29T15:04:46.931Z,1.80
2019-05-29T15:07:13.993Z,1.70
2019-05-29T15:09:40.237Z,1.70
2019-05-29T15:12:06.427Z,1.50
2019-05-29T15:14:32.549Z,1.73
2019-05-29T15:16:58.685Z,1.57
2019-05-29T15:19:24.873Z,1.57
2019-05-29T15:21:51.006Z,1.40
2019-05-29T15:24:17.099Z,1.60
2019-05-29T15:26:43.345Z,1.20
2019-05-29T15:29:13.281Z,1.20
2019-05-29T15:31:38.598Z,1.03
2019-05-29T15:34:04.650Z,1.40
2019-05-29T15:36:30.741Z,1.30
2019-05-29T15:38:57.061Z,1.40
2019-05-29T15:41:23.318Z,1.20
2019-05-29T15:43:49.542Z,1.17
2019-05-29T15:46:17.362Z,1.63
2019-05-29T15:48:43.844Z,1.20
2019-05-29T15:51:10.982Z,1.60
2019-05-29T15:53:37.173Z,1.30
2019-05-29T15:56:20.207Z,1.10
2019-05-29T15:58:31.778Z,1.27
2019-05-29T16:00:58.003Z,1.03
2019-05-29T16:03:24.198Z,1.30
2019-05-29T16:05:50.395Z,1.30
2019-05-29T16:08:16.598Z,1.17
2019-05-29T16:10:42.710Z,1.40
2019-05-29T16:13:08.823Z,1.20
2019-05-29T16:15:36.178Z,1.83
2019-05-29T16:18:02.634Z,1.30
2019-05-29T16:20:28.902Z,1.30
2019-05-29T16:22:55.081Z,1.20
2019-05-29T16:25:37.831Z,1.10
2019-05-29T16:27:49.318Z,1.30
2019-05-29T16:30:16.084Z,1.17
2019-05-29T16:32:42.760Z,1.50
2019-05-29T16:35:10.804Z,11.93
2019-05-29T16:37:37.180Z,1.80
2019-05-29T16:40:08.212Z,1.10
2019-05-29T16:42:34.514Z,1.23
2019-05-29T16:45:00.717Z,1.60
2019-05-29T16:47:26.828Z,1.10
2019-05-29T16:49:52.935Z,1.20
2019-05-29T16:52:19.123Z,1.40
2019-05-29T16:54:45.252Z,1.40
2019-05-29T16:57:11.341Z,1.50
2019-05-29T16:59:37.442Z,1.40
2019-05-29T17:02:03.663Z,1.40
2019-05-29T17:04:29.893Z,1.30
2019-05-29T17:06:56.293Z,1.17
2019-05-29T17:09:22.412Z,1.30
2019-05-29T17:11:48.470Z,1.67
2019-05-29T17:14:14.563Z,1.80
2019-05-29T17:16:40.996Z,1.07
2019-05-29T17:19:07.268Z,1.20
2019-05-29T17:21:33.476Z,1.40
2019-05-29T17:23:59.765Z,1.40
2019-05-29T17:26:25.987Z,1.20
2019-05-29T17:28:52.289Z,1.50
2019-05-29T17:31:18.924Z,1.07
2019-05-29T17:33:45.314Z,1.20
2019-05-29T17:36:11.527Z,1.40
2019-05-29T17:38:37.624Z,1.30
2019-05-29T17:41:03.827Z,1.47
2019-05-29T17:43:30.161Z,1.63
2019-05-29T17:45:56.250Z,1.20
2019-05-29T17:48:23.737Z,1.37
2019-05-29T17:50:50.238Z,1.57
2019-05-29T17:53:17.705Z,1.60
2019-05-29T17:55:46.660Z,1.60
2019-05-29T17:58:12.430Z,1.70
2019-05-29T18:00:38.681Z,1.70
2019-05-29T18:03:04.880Z,1.40
2019-05-29T18:05:31.170Z,1.30
2019-05-29T18:08:01.506Z,1.40
2019-05-29T18:10:25.812Z,1.50
2019-05-29T18:12:51.909Z,2.07
2019-05-29T18:15:19.679Z,1.53
2019-05-29T18:17:45.999Z,1.47
2019-05-29T18:20:14.644Z,1.80
2019-05-29T18:22:40.630Z,1.32
2019-05-29T18:25:07.814Z,1.53
2019-05-29T18:27:35.264Z,2.27
2019-05-29T18:30:01.813Z,1.93
2019-05-29T18:32:29.016Z,1.90
2019-05-29T18:34:56.403Z,1.70
2019-05-29T18:37:24.208Z,1.77
2019-05-29T18:39:50.592Z,1.40
2019-05-29T18:42:16.925Z,1.27
2019-05-29T18:44:43.009Z,2.20
2019-05-29T18:47:09.112Z,1.50
2019-05-29T18:49:35.212Z,1.60
2019-05-29T18:52:01.434Z,1.80
2019-05-29T18:54:29.885Z,1.50
2019-05-29T18:57:13.575Z,1.90
2019-05-29T18:59:25.457Z,2.60
2019-05-29T19:01:51.807Z,3.90
2019-05-29T19:04:18.031Z,5.47
2019-05-29T19:06:44.142Z,3.40
2019-05-29T19:09:10.517Z,2.47
2019-05-29T19:11:36.717Z,2.07
2019-05-29T19:14:03.728Z,1.87
2019-05-29T19:16:30.110Z,1.83
2019-05-29T19:18:56.112Z,1.73
2019-05-29T19:21:22.422Z,1.67
2019-05-29T19:23:48.463Z,1.90
2019-05-29T19:26:14.663Z,2.00
2019-05-29T19:28:40.996Z,2.50
2019-05-29T19:31:07.289Z,2.30
2019-05-29T19:33:33.657Z,2.30
2019-05-29T19:35:59.916Z,2.00
2019-05-29T19:38:26.119Z,1.70
2019-05-29T19:40:52.232Z,1.93
2019-05-29T19:43:18.445Z,2.10
2019-05-29T19:45:44.565Z,2.40
2019-05-29T19:48:10.752Z,2.10
2019-05-29T19:50:36.990Z,2.40
2019-05-29T19:53:03.381Z,2.20
2019-05-29T19:55:33.132Z,2.77
2019-05-29T19:57:57.736Z,2.67
2019-05-29T20:00:24.046Z,3.00
2019-05-29T20:02:50.258Z,2.70
2019-05-29T20:05:16.565Z,2.20
2019-05-29T20:07:42.960Z,2.07
2019-05-29T20:10:09.556Z,2.03
2019-05-29T20:12:35.714Z,2.00
2019-05-29T20:15:04.543Z,1.93
2019-05-29T20:17:32.080Z,1.80
2019-05-29T20:19:58.306Z,2.30
2019-05-29T20:22:24.524Z,2.33
2019-05-29T20:24:50.738Z,2.00
2019-05-29T20:27:18.039Z,2.03
2019-05-29T20:29:44.148Z,2.43
2019-05-29T20:32:10.358Z,1.80
2019-05-29T20:34:36.956Z,2.03
2019-05-29T20:37:03.088Z,1.97
2019-05-29T20:39:30.208Z,1.90
2019-05-29T20:41:56.538Z,2.00
2019-05-29T20:44:22.629Z,2.10
2019-05-29T20:46:48.823Z,2.20
2019-05-29T20:49:16.031Z,1.60
2019-05-29T20:51:42.351Z,1.73
2019-05-29T20:54:09.940Z,2.07
2019-05-29T20:56:36.060Z,2.00
2019-05-29T20:59:02.331Z,2.33
2019-05-29T21:01:28.767Z,2.40
2019-05-29T21:03:54.817Z,2.47
2019-05-29T21:06:21.066Z,2.27
2019-05-29T21:08:47.374Z,2.20
2019-05-29T21:11:13.646Z,2.07
2019-05-29T21:13:39.752Z,2.33
2019-05-29T21:16:05.985Z,2.10
2019-05-29T21:18:33.814Z,2.57
2019-05-29T21:21:00.075Z,2.10
2019-05-29T21:23:26.297Z,2.20
2019-05-29T21:25:52.381Z,2.33
2019-05-29T21:28:18.504Z,2.33
2019-05-29T21:30:45.718Z,2.03
2019-05-29T21:33:11.892Z,2.20
2019-05-29T21:35:38.052Z,2.03
2019-05-29T21:38:04.474Z,2.30
2019-05-29T21:40:30.710Z,2.30
2019-05-29T21:42:56.829Z,2.00
2019-05-29T21:45:23.152Z,2.03
2019-05-29T21:47:49.290Z,2.20
2019-05-29T21:50:15.617Z,1.90
2019-05-29T21:52:41.808Z,1.80
2019-05-29T21:55:08.087Z,2.10
2019-05-29T21:57:34.371Z,2.30
2019-05-29T22:00:01.507Z,2.10
2019-05-29T22:02:29.504Z,1.77
2019-05-29T22:04:55.738Z,2.03
2019-05-29T22:07:21.927Z,2.07
2019-05-29T22:09:48.139Z,2.00
2019-05-29T22:12:14.419Z,2.00
2019-05-29T22:14:40.921Z,1.90
2019-05-29T22:17:07.350Z,2.00
2019-05-29T22:19:33.447Z,2.10
2019-05-29T22:21:59.550Z,1.93
2019-05-29T22:24:25.837Z,1.97
2019-05-29T22:26:53.064Z,2.00
2019-05-29T22:29:19.237Z,2.20
2019-05-29T22:31:45.323Z,1.80
2019-05-29T22:34:11.397Z,2.40
2019-05-29T22:36:37.510Z,2.27
2019-05-29T22:39:04.611Z,2.30
2019-05-29T22:41:30.901Z,2.20
2019-05-29T22:43:58.082Z,2.10
2019-05-29T22:46:24.214Z,2.17
2019-05-29T22:48:51.577Z,2.20
2019-05-29T22:51:19.044Z,2.10
2019-05-29T22:53:45.119Z,2.07
2019-05-29T22:56:11.319Z,2.20
2019-05-29T22:58:37.439Z,2.20
2019-05-29T23:01:03.630Z,2.30
2019-05-29T23:03:29.722Z,2.07
2019-05-29T23:05:56.120Z,2.70
2019-05-29T23:08:22.531Z,2.30
2019-05-29T23:10:48.633Z,2.40
2019-05-29T23:13:14.821Z,2.43
2019-05-29T23:15:41.002Z,2.53
2019-05-29T23:18:07.113Z,2.10
2019-05-29T23:20:33.414Z,2.47
2019-05-29T23:23:00.782Z,2.50
2019-05-29T23:25:27.114Z,2.40
2019-05-29T23:27:53.304Z,2.40
2019-05-29T23:30:19.717Z,2.40
2019-05-29T23:32:45.837Z,2.70
2019-05-29T23:35:12.148Z,2.80
2019-05-29T23:37:38.256Z,2.43
2019-05-29T23:40:05.961Z,2.70
2019-05-29T23:42:32.092Z,2.40
2019-05-29T23:44:59.423Z,2.40
2019-05-29T23:47:25.800Z,2.60
2019-05-29T23:49:51.980Z,2.60
2019-05-29T23:52:18.087Z,2.60
2019-05-29T23:54:45.298Z,2.47
2019-05-29T23:57:11.585Z,2.50
2019-05-29T23:59:37.689Z,2.47
